• Join FlightAware (Why Join?)
  • Login
  • US Flag 
07:53AM EST


 

Airport Tracker/Info


-or-


 

Live Flight TrackerFlight Track Log ✈ OPT330 ✈ 27-Apr-2014 ✈ KFNL - KMGM

Flight Track Log - Related Links

Times and Time Zones

All times are in EDT time to prevent confusion due to time zone crossing. See the OPT330 flight status page for this flight to view local times or setup timezone preferences in your user account.

Time Position Orientation Groundspeed Altitude Reporting Facility
EDT Latitude Longitude Course Direction KTS MPH feet Rate Location/Type
10:41AM 40.4778 -105.0010 61° Northeast 210 242 7,600  Level FlightAware ADS-B (KEIK)
10:42AM 40.4794 -104.9686 107° East 251 289 8,600 2,160 Climbing FlightAware ADS-B (KEIK)
10:42AM 40.4697 -104.9320 110° East 253 291 9,400 1,740 Climbing FlightAware ADS-B (KEIK)
10:43AM 40.4396 -104.8188 108° East 304 350 11,400 1,920 Climbing FlightAware ADS-B (KEIK)
10:44AM 40.4215 -104.7469 108° East 303 349 13,000 1,680 Climbing FlightAware ADS-B (KBJC)
10:45AM 40.4083 -104.6945 114° Southeast 317 365 13,500 780 Climbing FlightAware ADS-B (KEIK)
10:45AM 40.3979 -104.6720 129° Southeast 321 369 13,600 960 Climbing FlightAware ADS-B (KBJC)
10:45AM 40.3804 -104.6528 144° Southeast 349 402 13,900 4,500 Climbing FlightAware ADS-B (KBJC)
10:46AM 40.3400 -104.6118 140° Southeast 293 337 17,300 4,080 Climbing FlightAware ADS-B (KEIK)
10:46AM 40.2982 -104.5636 138° Southeast 306 352 19,100 2,280 Climbing FlightAware ADS-B (KBJC)
10:47AM 40.2543 -104.5156 141° Southeast 316 364 20,400 2,160 Climbing FlightAware ADS-B (KEIK)
10:48AM 40.2161 -104.4744 140° Southeast 310 357 21,800 2,400 Climbing FlightAware ADS-B (KBJC)
10:48AM 40.1822 -104.4382 140° Southeast 318 366 23,000 2,400 Climbing FlightAware ADS-B (KEIK)
10:49AM 40.1451 -104.3972 140° Southeast 328 377 24,300 2,340 Climbing FlightAware ADS-B (KEIK)
10:49AM 40.1063 -104.3549 140° Southeast 338 389 25,500 1,980 Climbing FlightAware ADS-B (KEIK)
10:50AM 40.0698 -104.3141 139° Southeast 351 404 26,400 2,460 Climbing FlightAware ADS-B (KEIK)
10:50AM 40.0233 -104.2634 141° Southeast 347 399 28,300 2,460 Climbing FlightAware ADS-B (KEIK)
10:51AM 39.9703 -104.2067 140° Southeast 358 412 29,700 1,800 Climbing FlightAware ADS-B (KEIK)
10:51AM 39.9463 -104.1755 128° Southeast 366 421 30,400 2,220 Climbing FlightAware ADS-B (KEIK)
10:52AM 39.9153 -104.1096 113° Southeast 352 405 31,800 2,820 Climbing FlightAware ADS-B (KEIK)
10:52AM 39.9133 -104.1035 112° Southeast 348 400 32,300 2,040 Climbing FlightAware ADS-B (KFLY)
10:52AM 39.9040 -104.0737 112° Southeast 352 405 32,600 1,740 Climbing FlightAware ADS-B (KBJC)
10:53AM 39.8804 -104.0048 117° Southeast 344 396 33,600 1,980 Climbing FlightAware ADS-B (KEIK)
10:53AM 39.8557 -103.9472 120° Southeast 335 386 34,900 1,200 Climbing FlightAware ADS-B (KFLY)
10:54AM 39.8295 -103.8843 118° Southeast 356 410 35,000 180 Climbing FlightAware ADS-B (KBJC)
10:54AM 39.8070 -103.8277 117° Southeast 372 428 35,100 960 Climbing FlightAware ADS-B (KFLY)
10:55AM 39.7751 -103.7460 117° Southeast 363 418 36,200 1,500 Climbing FlightAware ADS-B (KFLY)
10:56AM 39.7517 -103.6865 117° Southeast 356 410 36,900 1,260 Climbing FlightAware ADS-B (KEIK)
10:56AM 39.7305 -103.6321 117° Southeast 351 404 37,500 1,200 Climbing FlightAware ADS-B (KFLY)
10:57AM 39.7067 -103.5735 118° Southeast 348 400 38,100 960 Climbing FlightAware ADS-B (KEIK)
10:57AM 39.6847 -103.5193 118° Southeast 344 396 38,500 900 Climbing FlightAware ADS-B (KFLY)
10:57AM 39.6718 -103.4872 118° Southeast 345 397 38,900 900 Climbing FlightAware ADS-B (KBJC)
10:58AM 39.6406 -103.4081 117° Southeast 348 400 39,400 780 Climbing FlightAware ADS-B (KFLY)
10:59AM 39.6156 -103.3464 119° Southeast 346 398 39,900 840 Climbing FlightAware ADS-B (KEIK)
10:59AM 39.5923 -103.2919 117° Southeast 347 399 40,300 780 Climbing FlightAware ADS-B (KEIK)
11:00AM 39.5664 -103.2244 117° Southeast 345 397 40,800 840 Climbing FlightAware ADS-B (KFLY)
11:00AM 39.5416 -103.1626 118° Southeast 344 396 41,300 720 Climbing FlightAware ADS-B (KEIK)
11:01AM 39.5175 -103.1041 119° Southeast 347 399 41,600 540 Climbing FlightAware ADS-B (KBJC)
11:01AM 39.4941 -103.0478 118° Southeast 351 404 41,900 540 Climbing FlightAware ADS-B (KBJC)
11:02AM 39.4685 -102.9849 118° Southeast 353 406 42,200 540 Climbing FlightAware ADS-B (KEIK)
11:02AM 39.4518 -102.9427 117° Southeast 354 407 42,500 720 Climbing FlightAware ADS-B (KFLY)
11:03AM 39.4189 -102.8624 119° Southeast 348 400 43,100 660 Climbing FlightAware ADS-B (KFLY)
11:04AM 39.3894 -102.7889 117° Southeast 348 400 43,400 480 Climbing FlightAware ADS-B (KEIK)
11:04AM 39.3659 -102.7325 119° Southeast 350 403 43,700 540 Climbing FlightAware ADS-B (KBJC)
11:05AM 39.3450 -102.6823 117° Southeast 349 402 44,000 480 Climbing FlightAware ADS-B (KFLY)
11:05AM 39.3251 -102.6329 118° Southeast 349 402 44,300 480 Climbing FlightAware ADS-B (KEIK)
11:06AM 39.2894 -102.5467 118° Southeast 348 400 44,600 420 Climbing FlightAware ADS-B (KEIK)
11:06AM 39.2644 -102.4872 119° Southeast 347 399 44,800 240 Climbing FlightAware ADS-B (KFLY)
11:07AM 39.2411 -102.4323 118° Southeast 349 402 44,900 180 Climbing FlightAware ADS-B (KBJC)
11:07AM 39.2214 -102.3841 118° Southeast 355 409 45,000 120 Climbing FlightAware ADS-B (KFLY)
11:08AM 39.2046 -102.3430 114° Southeast 361 415 45,000  Level FlightAware ADS-B (KEIK)
11:08AM 39.1811 -102.2635 109° East 368 423 45,000  Level FlightAware ADS-B (KFLY)
11:09AM 39.1626 -102.1953 110° East 372 428 45,000  Level FlightAware ADS-B (KEIK)
11:10AM 39.1360 -102.0989 110° East 377 434 45,000  Level FlightAware ADS-B (KFLY)
11:10AM 39.1227 -102.0521 115° Southeast 380 437 45,000  Level FlightAware ADS-B (KEIK)
11:10AM 39.1046 -102.0117 126° Southeast 378 435 45,000  Level FlightAware ADS-B (KFLY)
11:11AM 39.0844 -101.9827 138° Southeast 375 432 45,000  Level FlightAware ADS-B (KFLY)
11:11AM 39.0389 -101.9329 139° Southeast 379 436 45,000  Level FlightAware ADS-B (KFLY)
11:12AM 38.9579 -101.8435 139° Southeast 384 442 45,000  Level FlightAware ADS-B (KBJC)
11:14AM 38.8124 -101.6843 140° Southeast 392 451 45,000  Level FlightAware ADS-B (KEIK)
11:15AM 38.7507 -101.6171 140° Southeast 394 453 45,000  Level FlightAware ADS-B (KEIK)
11:16AM 38.6800 -101.5403 140° Southeast 397 457 45,000  Level FlightAware ADS-B (KEIK)
11:17AM 38.5806 -101.4323 140° Southeast 402 463 45,000  Level FlightAware ADS-B (KEIK)
11:17AM 38.5356 -101.3822 140° Southeast 398 458 45,000  Level Kansas City Center
11:18AM 38.4814 -101.3258 141° Southeast 400 460 45,000  Level Denver Center
11:19AM 38.3850 -101.2214 140° Southeast 402 463 45,000  Level Denver Center
11:20AM 38.3017 -101.1325 140° Southeast 406 467 45,000  Level Denver Center
11:21AM 38.2033 -101.0272 140° Southeast 409 471 45,000  Level Denver Center
11:22AM 38.1181 -100.9367 140° Southeast 414 476 45,000  Level Denver Center
11:23AM 38.0331 -100.8453 140° Southeast 415 478 45,000  Level Denver Center
11:24AM 37.9328 -100.7375 140° Southeast 416 479 45,000  Level Denver Center
11:26AM 37.8694 -100.5608 114° Southeast 426 490 45,000  Level Kansas City Center
11:27AM 37.8258 -100.4258 112° Southeast 426 490 45,000  Level Kansas City Center
11:28AM 37.7764 -100.2683 112° Southeast 427 491 45,000  Level Kansas City Center
11:29AM 37.7339 -100.1339 112° Southeast 428 493 45,000  Level Kansas City Center
11:30AM 37.6908 -99.9969 112° Southeast 431 496 45,000  Level Kansas City Center
11:31AM 37.6408 -99.8403 112° Southeast 431 496 45,000  Level Kansas City Center
11:32AM 37.5975 -99.7053 112° Southeast 431 496 45,000  Level Kansas City Center
11:33AM 37.5472 -99.5481 112° Southeast 431 496 45,000  Level Kansas City Center
11:34AM 37.5064 -99.4194 112° Southeast 435 501 45,000  Level Kansas City Center
11:35AM 37.4600 -99.2775 112° Southeast 438 504 45,000  Level Kansas City Center
11:36AM 37.4136 -99.1364 112° Southeast 438 504 45,000  Level Kansas City Center
11:37AM 37.3678 -98.9950 112° Southeast 438 504 45,000  Level Kansas City Center
11:38AM 37.3108 -98.8236 113° Southeast 441 507 45,000  Level Kansas City Center
11:39AM 37.2631 -98.6808 113° Southeast 442 509 45,000  Level Kansas City Center
11:40AM 37.2161 -98.5389 113° Southeast 442 509 45,000  Level Kansas City Center
11:41AM 37.1672 -98.3964 113° Southeast 443 510 45,000  Level Kansas City Center
11:42AM 37.1189 -98.2536 113° Southeast 445 512 45,000  Level Kansas City Center
11:43AM 37.0708 -98.1108 113° Southeast 445 512 45,000  Level Kansas City Center
11:44AM 37.0231 -97.9664 112° Southeast 446 513 45,000  Level Kansas City Center
11:45AM 36.9739 -97.8244 113° Southeast 447 514 45,000  Level Kansas City Center
11:46AM 36.9158 -97.6519 113° Southeast 450 518 45,000  Level Kansas City Center
11:47AM 36.8664 -97.5056 113° Southeast 453 521 45,000  Level Kansas City Center
11:48AM 36.8214 -97.3708 113° Southeast 454 522 45,000  Level Kansas City Center
11:49AM 36.7717 -97.2269 113° Southeast 454 522 45,000  Level Kansas City Center
11:50AM 36.7094 -97.0606 115° Southeast 449 517 45,000  Level Kansas City Center
11:51AM 36.6247 -96.9500 134° Southeast 453 521 45,000  Level Kansas City Center
11:52AM 36.5322 -96.8536 140° Southeast 444 511 45,000  Level Kansas City Center
11:53AM 36.4383 -96.7539 139° Southeast 444 511 45,000  Level Kansas City Center
11:54AM 36.3442 -96.6556 140° Southeast 443 510 45,000  Level Kansas City Center
11:55AM 36.2533 -96.5544 138° Southeast 444 511 45,000  Level Kansas City Center
11:56AM 36.1644 -96.4531 137° Southeast 442 509 45,000  Level Kansas City Center
11:57AM 36.0808 -96.3503 135° Southeast 435 501 45,000  Level Kansas City Center
11:58AM 35.9867 -96.2158 131° Southeast 435 501 45,000  Level Kansas City Center
11:59AM 35.9247 -96.0886 121° Southeast 436 502 45,000  Level Kansas City Center
12:05PM 35.6852 -95.3571 110° East 433 498 45,000  Level FlightAware ADS-B
12:05PM 35.6542 -95.2540 110° East 432 497 45,000  Level FlightAware ADS-B
12:08PM 35.5673 -94.9671 111° Southeast 428 493 45,000  Level FlightAware ADS-B
12:09PM 35.5264 -94.8332 111° Southeast 431 496 45,000  Level FlightAware ADS-B
12:09PM 35.4929 -94.7241 111° Southeast 431 496 45,000  Level FlightAware ADS-B
12:10PM 35.4656 -94.6349 111° Southeast 433 498 45,000  Level FlightAware ADS-B
12:11PM 35.4467 -94.5736 111° Southeast 431 496 45,000  Level FlightAware ADS-B
12:11PM 35.4096 -94.4535 111° Southeast 431 496 45,000  Level FlightAware ADS-B
12:12PM 35.3812 -94.3617 111° Southeast 433 498 45,000  Level FlightAware ADS-B
12:13PM 35.3558 -94.2804 111° Southeast 434 499 45,000  Level FlightAware ADS-B
12:13PM 35.3229 -94.1750 111° Southeast 435 501 45,000  Level FlightAware ADS-B
12:14PM 35.2941 -94.0831 111° Southeast 439 505 45,000  Level FlightAware ADS-B
12:15PM 35.2669 -93.9967 111° Southeast 440 506 45,000  Level FlightAware ADS-B
12:15PM 35.2354 -93.8969 111° Southeast 444 511 45,000  Level FlightAware ADS-B
12:16PM 35.2079 -93.8097 111° Southeast 446 513 45,000  Level FlightAware ADS-B
12:17PM 35.1770 -93.7122 111° Southeast 445 512 45,000  Level FlightAware ADS-B
12:17PM 35.1468 -93.6171 111° Southeast 444 511 45,000  Level FlightAware ADS-B
12:18PM 35.1154 -93.5191 111° Southeast 446 513 45,000  Level FlightAware ADS-B
12:19PM 35.0860 -93.4269 111° Southeast 446 513 45,000  Level FlightAware ADS-B
12:19PM 35.0593 -93.3440 111° Southeast 446 513 45,000  Level FlightAware ADS-B
12:20PM 35.0261 -93.2409 111° Southeast 445 512 45,000  Level FlightAware ADS-B
12:21PM 34.9956 -93.1467 112° Southeast 443 510 45,000  Level FlightAware ADS-B
12:21PM 34.9654 -93.0536 112° Southeast 443 510 45,000  Level FlightAware ADS-B
12:22PM 34.9355 -92.9619 112° Southeast 442 509 45,000  Level FlightAware ADS-B
12:23PM 34.9100 -92.8837 112° Southeast 440 506 45,000  Level FlightAware ADS-B
12:23PM 34.8754 -92.7779 112° Southeast 439 505 45,000  Level FlightAware ADS-B
12:24PM 34.8456 -92.6872 112° Southeast 441 507 45,000  Level FlightAware ADS-B
12:25PM 34.8227 -92.6175 112° Southeast 438 504 45,000  Level FlightAware ADS-B
12:25PM 34.7863 -92.5072 112° Southeast 434 499 45,000  Level FlightAware ADS-B
12:26PM 34.7571 -92.4190 112° Southeast 431 496 45,000  Level FlightAware ADS-B
12:27PM 34.7264 -92.3264 112° Southeast 428 493 45,000  Level FlightAware ADS-B
12:27PM 34.6968 -92.2378 112° Southeast 426 490 45,000  Level FlightAware ADS-B
12:28PM 34.6675 -92.1635 127° Southeast 414 476 45,000  Level FlightAware ADS-B
12:29PM 34.6129 -92.0772 127° Southeast 412 474 45,000  Level FlightAware ADS-B
12:29PM 34.5680 -92.0047 127° Southeast 411 473 45,000  Level FlightAware ADS-B
12:30PM 34.5221 -91.9310 127° Southeast 408 470 45,000  Level FlightAware ADS-B
12:31PM 34.4777 -91.8599 127° Southeast 407 468 45,000  Level FlightAware ADS-B
12:31PM 34.4320 -91.7870 127° Southeast 406 467 45,000  Level FlightAware ADS-B
12:32PM 34.3859 -91.7137 127° Southeast 405 466 45,000  Level FlightAware ADS-B
12:33PM 34.3386 -91.6386 127° Southeast 405 466 45,000  Level FlightAware ADS-B
12:34PM 34.2764 -91.5392 127° Southeast 407 468 45,000  Level Memphis Center
12:35PM 34.2089 -91.4311 127° Southeast 406 467 45,000  Level Memphis Center
12:36PM 34.1389 -91.3247 128° Southeast 406 467 45,000  Level Memphis Center
12:37PM 34.0708 -91.2164 127° Southeast 406 467 45,000  Level Memphis Center
12:38PM 33.9875 -91.0867 128° Southeast 408 470 45,000  Level Memphis Center
12:39PM 33.9183 -90.9797 128° Southeast 408 470 45,000  Level Memphis Center
12:40PM 33.8497 -90.8708 127° Southeast 408 470 45,000  Level Memphis Center
12:41PM 33.7856 -90.7742 129° Southeast 408 470 45,000  Level Memphis Center
12:42PM 33.7028 -90.6436 127° Southeast 409 471 45,000  Level Memphis Center
12:43PM 33.6319 -90.5358 128° Southeast 410 472 45,000  Level Memphis Center
12:44PM 33.5617 -90.4272 128° Southeast 412 474 45,000  Level Memphis Center
12:45PM 33.4897 -90.3167 128° Southeast 416 479 45,000  Level Memphis Center
12:46PM 33.4167 -90.2075 129° Southeast 419 482 45,000  Level Memphis Center
12:47PM 33.3336 -90.1106 136° Southeast 419 482 45,000  Level Memphis Center
12:48PM 33.2356 -89.9878 134° Southeast 423 487 45,000  Level Memphis Center
12:49PM 33.1536 -89.8850 134° Southeast 424 488 45,000  Level Memphis Center
12:50PM 33.0728 -89.7739 131° Southeast 432 497 45,000  Level Memphis Center
12:51PM 32.9944 -89.6583 129° Southeast 436 502 45,000  Level Memphis Center
12:52PM 32.9200 -89.5400 127° Southeast 440 506 45,000  Level Memphis Center
12:53PM 32.8506 -89.4181 124° Southeast 442 509 45,000  Level Memphis Center
12:54PM 32.7836 -89.2958 123° Southeast 442 509 45,000  Level Memphis Center
12:55PM 32.7164 -89.1731 123° Southeast 443 510 45,000  Level Memphis Center
12:56PM 32.6456 -89.0533 125° Southeast 444 511 45,000  Level Memphis Center
12:57PM 32.5731 -88.9350 126° Southeast 444 511 45,000 -1,380 Level Memphis Center
12:58PM 32.4869 -88.7922 126° Southeast 445 512 42,200 -2,460 Descending Memphis Center
12:59PM 32.4192 -88.6711 124° Southeast 446 513 40,000 -2,160 Descending Memphis Center
01:00PM 32.3533 -88.5556 124° Southeast 433 498 37,900 -2,220 Descending Memphis Center
01:01PM 32.2881 -88.4475 126° Southeast 417 480 35,500 -2,520 Descending Memphis Center
01:02PM 32.2272 -88.3361 123° Southeast 410 472 32,800 -2,580 Descending Memphis Center
01:03PM 32.1697 -88.2272 122° Southeast 399 459 30,300 -1,380 Descending Memphis Center
01:05PM 32.1014 -88.1136 125° Southeast 418 481 30,000 -180 Descending Memphis Center
01:06PM 32.0028 -87.9822 131° Southeast 441 507 30,000 480 Level Memphis Center
01:07PM 31.9217 -87.8719 131° Southeast 445 512 31,000 600 Climbing Memphis Center
01:07PM 31.8728 -87.8075 132° Southeast 439 505 31,000  Level Atlanta Center
01:08PM 31.7864 -87.6986 133° Southeast 444 511 31,000  Level Atlanta Center
01:09PM 31.6997 -87.5928 134° Southeast 455 524 31,000  Level Atlanta Center
01:10PM 31.6131 -87.4794 132° Southeast 460 529 31,000  Level Atlanta Center
01:11PM 31.5308 -87.3572 128° Southeast 465 535 31,000  Level Atlanta Center
01:12PM 31.4908 -87.2144 108° East 454 522 31,000  Level Atlanta Center
01:13PM 31.5239 -87.0669 75° East 443 510 31,000  Level Atlanta Center
01:14PM 31.6053 -86.9747 44° Northeast 415 478 31,000  Level Atlanta Center
01:15PM 31.7075 -86.8853 37° Northeast 413 475 31,000 -1,200 Level Atlanta Center
01:16PM 31.8078 -86.7931 38° Northeast 427 491 28,600 -3,240 Descending Atlanta Center
01:17PM 31.9014 -86.7053 39° Northeast 438 504 24,600 -4,200 Descending Atlanta Center
01:18PM 32.0119 -86.6206 33° Northeast 438 504 20,200 -3,720 Descending Atlanta Center
01:19PM 32.1072 -86.5544 30° Northeast 416 479 17,200 -4,440 Descending Atlanta Center
01:21PM 32.2536 -86.5414 North 284 327 6,500 -4,080 Descending Atlanta Center
01:22PM 32.2692 -86.5936 289° West 199 229 5,000 -1,860 Descending Atlanta Center
01:23PM 32.3258 -86.5731 17° North 198 228 3,000 -1,560 Descending Atlanta Center
01:24PM 32.3106 -86.5061 105° East 106 122 1,900 -1,020 Descending Atlanta Center
01:25PM 32.3075 -86.4569 94° East 128 147 1,000 -780 Descending Atlanta Center
01:26PM 32.3039 -86.4200 97° East 128 147 400 -600 Descending Atlanta Center